• Join FlightAware (Why Join?)
  • Login
  • US Flag 
10:33AM EDT


 

Airport Tracker/Info


-or-


 

Live Flight TrackerFlight Track Log ✈ TAP1626 ✈ 23-May-2012 ✈ LPMA / FNC - LPPT / LIS

Flight Track Log - Related Links

Times and Time Zones

All times are in EDT time to prevent confusion due to time zone crossing. See the TAP1626 flight status page for this flight to view local times or setup timezone preferences in your user account.

Time Position Orientation Groundspeed Altitude Reporting Facility
EDT Latitude Longitude Course Direction KTS MPH feet Rate Location/Type
10:57AM 32.8340 -16.6214 43° Northeast  Level Estimated
10:58AM 32.9226 -16.5213 44° Northeast  Level Estimated
10:59AM 33.0112 -16.4210 44° Northeast  Level Estimated
11:00AM 33.0997 -16.3205 44° Northeast  Level Estimated
11:01AM 33.1881 -16.2198 44° Northeast  Level Estimated
11:02AM 33.2765 -16.1189 44° Northeast  Level Estimated
11:03AM 33.3647 -16.0178 44° Northeast  Level Estimated
11:04AM 33.4529 -15.9165 44° Northeast  Level Estimated
11:05AM 33.5410 -15.8149 44° Northeast  Level Estimated
11:06AM 33.6290 -15.7132 44° Northeast  Level Estimated
11:07AM 33.7170 -15.6113 44° Northeast  Level Estimated
11:08AM 33.8048 -15.5091 44° Northeast  Level Estimated
11:09AM 33.8926 -15.4068 44° Northeast  Level Estimated
11:10AM 33.9803 -15.3042 44° Northeast  Level Estimated
11:11AM 34.0678 -15.2015 44° Northeast  Level Estimated
11:12AM 34.1553 -15.0985 44° Northeast  Level Estimated
11:13AM 34.2428 -14.9953 44° Northeast  Level Estimated
11:14AM 34.3301 -14.8919 44° Northeast  Level Estimated
11:15AM 34.4173 -14.7882 44° Northeast  Level Estimated
11:16AM 34.5045 -14.6844 45° Northeast  Level Estimated
11:17AM 34.5916 -14.5803 45° Northeast  Level Estimated
11:18AM 34.6785 -14.4761 45° Northeast  Level Estimated
11:19AM 34.7654 -14.3715 45° Northeast  Level Estimated
11:20AM 34.8522 -14.2668 45° Northeast  Level Estimated
11:21AM 34.9389 -14.1619 45° Northeast  Level Estimated
11:22AM 35.0256 -14.0567 45° Northeast  Level Estimated
11:23AM 35.1121 -13.9513 45° Northeast  Level Estimated
11:24AM 35.1985 -13.8457 45° Northeast  Level Estimated
11:25AM 35.2849 -13.7399 45° Northeast  Level Estimated
11:26AM 35.3711 -13.6338 45° Northeast  Level Estimated
11:27AM 35.4573 -13.5275 45° Northeast  Level Estimated
11:28AM 35.5434 -13.4210 45° Northeast  Level Estimated
11:29AM 35.6293 -13.3143 45° Northeast  Level Estimated
11:30AM 35.7152 -13.2073 45° Northeast  Level Estimated
11:31AM 35.8010 -13.1001 45° Northeast  Level Estimated
11:32AM 35.8867 -12.9927 45° Northeast  Level Estimated
11:33AM 35.9723 -12.8850 46° Northeast  Level Estimated
11:34AM 36.0578 -12.7771 46° Northeast  Level Estimated
11:35AM 36.1432 -12.6690 46° Northeast  Level Estimated
11:36AM 36.2285 -12.5606 46° Northeast  Level Estimated
11:37AM 36.3137 -12.4520 46° Northeast  Level Estimated
11:38AM 36.3988 -12.3431 46° Northeast  Level Estimated
11:39AM 36.4838 -12.2340 46° Northeast  Level Estimated
11:40AM 36.5687 -12.1247 46° Northeast  Level Estimated
11:41AM 36.6535 -12.0151 46° Northeast  Level Estimated
11:42AM 36.7382 -11.9053 46° Northeast  Level Estimated
11:43AM 36.8228 -11.7953 46° Northeast  Level Estimated
11:44AM 36.9073 -11.6850 46° Northeast  Level Estimated
11:45AM 36.9917 -11.5744 46° Northeast  Level Estimated
11:46AM 37.0760 -11.4637 46° Northeast  Level Estimated
11:47AM 37.1603 -11.3526 46° Northeast  Level Estimated
11:48AM 37.2443 -11.2414 47° Northeast  Level Estimated
11:49AM 37.3283 -11.1298 47° Northeast  Level Estimated
11:50AM 37.4122 -11.0181 47° Northeast  Level Estimated
11:51AM 37.4960 -10.9060 47° Northeast  Level Estimated
11:52AM 37.5797 -10.7937 47° Northeast  Level Estimated
11:53AM 37.6632 -10.6812 47° Northeast  Level Estimated
11:54AM 37.7467 -10.5684 47° Northeast  Level Estimated
11:55AM 37.8300 -10.4554 47° Northeast  Level Estimated
11:56AM 37.9133 -10.3421 47° Northeast  Level Estimated
11:57AM 37.9964 -10.2286 47° Northeast  Level Estimated
11:58AM 38.0794 -10.1148 47° Northeast  Level Estimated
11:59AM 38.1623 -10.0007 47° Northeast  Level Estimated
12:00PM 38.2451 -9.8864 47° Northeast  Level Estimated
12:01PM 38.3278 -9.7718 47° Northeast  Level Estimated
12:02PM 38.4104 -9.6569 48° Northeast  Level Estimated
12:03PM 38.4929 -9.5418 48° Northeast  Level Estimated
12:04PM 38.5752 -9.4265 48° Northeast  Level Estimated
12:05PM 38.6575 -9.3108 48° Northeast  Level Estimated
12:06PM 38.7396 -9.1949 48° Northeast  Level Estimated
12:07PM 38.8216 -9.0788 228° Southwest  Level Estimated
12:08PM 38.7396 -9.1949 48° Northeast  Level Estimated
12:09PM 38.8216 -9.0788 228° Southwest  Level Estimated
12:10PM 38.7396 -9.1949 48° Northeast  Level Estimated
12:11PM 38.8216 -9.0788 228° Southwest  Level Estimated
12:12PM 38.7396 -9.1949 48° Northeast  Level Estimated
12:13PM 38.8216 -9.0788 228° Southwest  Level Estimated
12:14PM 38.7396 -9.1949 48° Northeast  Level Estimated
12:15PM 38.8216 -9.0788 228° Southwest  Level Estimated
12:16PM 38.7396 -9.1949 48° Northeast  Level Estimated
12:17PM 38.8216 -9.0788 228° Southwest  Level Estimated
12:18PM 38.7396 -9.1949 48° Northeast  Level Estimated
12:19PM 38.8216 -9.0788 228° Southwest  Level Estimated
12:20PM 38.7396 -9.1949 48° Northeast  Level Estimated
12:21PM 38.8216 -9.0788 228° Southwest  Level Estimated
12:22PM 38.7396 -9.1949 228° Southwest  Level Estimated